Time;durP1;ratioP1;P1;durP2;ratioP2;P2;SDS_P1;SDS_P2;PMS_P1;PMS_P2;Temp;Humidity;BMP_temperature;BMP_pressure;BME280_temperature;BME280_humidity;BME280_pressure;Samples;Min_cycle;Max_cycle;Signal;HPM_P1;HPM_P2
2022/04/07 00:00:19;;;;;;;0.10;0.10;;;10.90;99.90;;;;;;4992310;28;20190;-81
2022/04/07 00:02:45;;;;;;;0.30;0.30;;;10.90;99.90;;;;;;4989693;28;20191;-81
2022/04/07 00:05:11;;;;;;;0.40;0.40;;;10.90;99.90;;;;;;4991649;28;20225;-82
2022/04/07 00:07:37;;;;;;;0.23;0.23;;;11.00;99.90;;;;;;4990843;28;20179;-81
2022/04/07 00:10:03;;;;;;;0.40;0.40;;;11.00;99.90;;;;;;4989300;28;20663;-81
2022/04/07 00:12:31;;;;;;;0.20;0.20;;;11.00;99.90;;;;;;4990273;28;20186;-81
2022/04/07 00:14:59;;;;;;;0.77;0.30;;;11.00;99.90;;;;;;4991330;28;20198;-82
2022/04/07 00:17:25;;;;;;;0.77;0.53;;;11.00;99.90;;;;;;4991077;28;20190;-81
2022/04/07 00:19:51;;;;;;;0.57;0.40;;;11.00;99.90;;;;;;4990722;28;20273;-81
2022/04/07 00:22:17;;;;;;;0.10;0.10;;;11.00;99.90;;;;;;4991525;28;20731;-81
2022/04/07 00:24:43;;;;;;;0.90;0.50;;;10.90;99.90;;;;;;4991972;28;20289;-81
2022/04/07 00:27:09;;;;;;;0.50;0.50;;;10.80;99.90;;;;;;4990250;28;20214;-82
2022/04/07 00:29:34;;;;;;;0.20;0.20;;;10.60;99.90;;;;;;4992971;28;20191;-81
2022/04/07 00:32:03;;;;;;;0.77;0.63;;;10.60;99.90;;;;;;4991863;28;20424;-82
2022/04/07 00:34:29;;;;;;;0.57;0.57;;;10.50;99.90;;;;;;4990472;28;20999;-82
2022/04/07 00:36:55;;;;;;;0.53;0.50;;;10.50;99.90;;;;;;4991821;28;20191;-82
2022/04/07 00:39:21;;;;;;;0.97;0.50;;;10.40;99.90;;;;;;4998657;28;20911;-82
2022/04/07 00:41:46;;;;;;;0.17;0.17;;;10.40;99.90;;;;;;4990073;28;20187;-82
2022/04/07 00:44:12;;;;;;;0.50;0.20;;;10.50;99.90;;;;;;4989151;28;20190;-82
2022/04/07 00:46:38;;;;;;;0.20;0.20;;;10.40;99.90;;;;;;4989871;28;20306;-82
2022/04/07 00:49:05;;;;;;;0.57;0.57;;;10.40;99.90;;;;;;4991618;28;20191;-82
2022/04/07 00:51:31;;;;;;;0.10;0.10;;;10.40;99.90;;;;;;4992035;28;20180;-82
2022/04/07 00:53:57;;;;;;;0.30;0.30;;;10.40;99.90;;;;;;4989241;28;20211;-82
2022/04/07 00:56:24;;;;;;;0.10;0.10;;;10.40;99.90;;;;;;4989504;28;20289;-81
2022/04/07 00:58:50;;;;;;;0.50;0.50;;;10.40;99.90;;;;;;4989765;28;20197;-82
2022/04/07 01:01:20;;;;;;;0.20;0.20;;;10.40;99.90;;;;;;4991106;28;20267;-82
2022/04/07 01:03:47;;;;;;;0.20;0.20;;;10.50;99.90;;;;;;4990639;28;20190;-82
2022/04/07 01:06:13;;;;;;;0.77;0.47;;;10.50;99.90;;;;;;4990061;28;20225;-81
2022/04/07 01:08:39;;;;;;;0.83;0.50;;;10.60;99.90;;;;;;4990406;28;20185;-82
2022/04/07 01:11:05;;;;;;;0.20;0.20;;;10.60;99.90;;;;;;4992152;28;20241;-81
2022/04/07 01:13:46;;;;;;;0.17;0.17;;;10.60;99.90;;;;;;4992784;28;20195;-82
2022/04/07 01:16:13;;;;;;;0.30;0.23;;;10.60;99.90;;;;;;4991696;28;20231;-82
2022/04/07 01:18:38;;;;;;;0.57;0.40;;;10.60;99.90;;;;;;4989603;28;20265;-81
2022/04/07 01:21:04;;;;;;;0.47;0.47;;;10.70;99.90;;;;;;4989024;28;20286;-82
2022/04/07 01:23:34;;;;;;;0.30;0.30;;;10.70;99.90;;;;;;4988449;28;20196;-82
2022/04/07 01:26:02;;;;;;;0.20;0.20;;;10.70;99.90;;;;;;4989382;28;20228;-81
2022/04/07 01:28:28;;;;;;;0.10;0.10;;;10.70;99.90;;;;;;4988450;28;20277;-82
2022/04/07 01:30:54;;;;;;;0.40;0.40;;;10.70;99.90;;;;;;4989199;28;20539;-82
2022/04/07 01:33:20;;;;;;;0.37;0.30;;;10.70;99.90;;;;;;4989187;28;20187;-81
2022/04/07 01:35:46;;;;;;;0.20;0.20;;;10.80;99.90;;;;;;4989925;28;20224;-82
2022/04/07 01:38:12;;;;;;;0.37;0.37;;;10.80;99.90;;;;;;4988472;28;20191;-83
2022/04/07 01:40:38;;;;;;;0.40;0.40;;;10.70;99.90;;;;;;4988477;28;20210;-81
2022/04/07 01:43:07;;;;;;;0.20;0.20;;;10.70;99.90;;;;;;4988681;28;20703;-83
2022/04/07 01:45:34;;;;;;;0.20;0.20;;;10.80;99.90;;;;;;4990769;28;20216;-81
2022/04/07 01:48:02;;;;;;;0.27;0.27;;;10.70;99.90;;;;;;4993249;28;20180;-82
2022/04/07 01:50:29;;;;;;;0.27;0.20;;;10.80;99.90;;;;;;4992159;28;20197;-82
2022/04/07 01:52:56;;;;;;;6.40;0.70;;;10.80;99.90;;;;;;4992432;28;20269;-81
2022/04/07 01:55:22;;;;;;;0.10;0.10;;;10.80;99.90;;;;;;4992350;28;20490;-82
2022/04/07 01:57:49;;;;;;;0.20;0.20;;;10.80;99.90;;;;;;4991469;28;20197;-82
2022/04/07 02:00:15;;;;;;;0.20;0.20;;;10.80;99.90;;;;;;5007497;28;20198;-82
2022/04/07 02:02:41;;;;;;;0.30;0.30;;;10.70;99.90;;;;;;4992643;28;20181;-82
2022/04/07 02:05:09;;;;;;;0.27;0.27;;;10.70;99.90;;;;;;4993076;28;20231;-82
2022/04/07 02:07:36;;;;;;;0.30;0.30;;;10.80;99.90;;;;;;4983318;28;20215;-82
2022/04/07 02:10:04;;;;;;;0.10;0.10;;;10.70;99.90;;;;;;4990503;28;20222;-83
2022/04/07 02:12:29;;;;;;;0.23;0.23;;;10.70;99.90;;;;;;4990721;28;20194;-81
2022/04/07 02:14:59;;;;;;;0.10;0.10;;;10.70;99.90;;;;;;4990201;28;20207;-81
2022/04/07 02:17:25;;;;;;;0.10;0.10;;;10.70;99.90;;;;;;5005885;28;20287;-81
2022/04/07 02:19:55;;;;;;;0.20;0.20;;;10.70;99.90;;;;;;4990025;28;20186;-83
2022/04/07 02:22:21;;;;;;;0.10;0.10;;;10.60;99.90;;;;;;4984433;28;20671;-81
2022/04/07 02:24:47;;;;;;;0.10;0.10;;;10.60;99.90;;;;;;4992061;28;20208;-82
2022/04/07 02:27:14;;;;;;;0.20;0.20;;;10.60;99.90;;;;;;4996839;28;20215;-82
2022/04/07 02:29:42;;;;;;;0.10;0.10;;;10.50;99.90;;;;;;4991334;28;20183;-82
2022/04/07 02:32:09;;;;;;;0.77;0.77;;;10.50;99.90;;;;;;4991573;28;20194;-82
2022/04/07 02:34:34;;;;;;;0.30;0.30;;;10.50;99.90;;;;;;4993279;28;20231;-82
2022/04/07 02:37:00;;;;;;;0.20;0.20;;;10.50;99.90;;;;;;4994103;28;20199;-81
2022/04/07 02:39:25;;;;;;;0.20;0.20;;;10.40;99.90;;;;;;4992641;28;20277;-81
2022/04/07 02:41:51;;;;;;;0.47;0.47;;;10.40;99.90;;;;;;4992099;28;20186;-80
2022/04/07 02:44:20;;;;;;;0.10;0.10;;;10.40;99.90;;;;;;4991466;28;20190;-81
2022/04/07 02:46:45;;;;;;;0.10;0.10;;;10.40;99.90;;;;;;4991671;28;20235;-81
2022/04/07 02:49:12;;;;;;;0.10;0.10;;;10.40;99.90;;;;;;4992036;28;20647;-81
2022/04/07 02:51:37;;;;;;;0.10;0.10;;;10.30;99.90;;;;;;4983991;28;20741;-81
2022/04/07 02:54:03;;;;;;;0.20;0.20;;;10.30;99.90;;;;;;4991370;28;20195;-81
2022/04/07 02:56:29;;;;;;;0.13;0.13;;;10.30;99.90;;;;;;4990442;28;20271;-81
2022/04/07 02:58:55;;;;;;;0.30;0.30;;;10.30;99.90;;;;;;4990453;28;20176;-81
2022/04/07 03:01:21;;;;;;;0.20;0.20;;;10.30;99.90;;;;;;5005724;28;20281;-81
2022/04/07 03:03:48;;;;;;;0.20;0.20;;;10.30;99.90;;;;;;4989748;28;20274;-81
2022/04/07 03:06:14;;;;;;;0.13;0.13;;;10.30;99.90;;;;;;4988940;28;20216;-81
2022/04/07 03:08:40;;;;;;;0.20;0.20;;;10.30;99.90;;;;;;4981006;28;20600;-81
2022/04/07 03:11:07;;;;;;;0.30;0.30;;;10.30;99.90;;;;;;4991399;28;20659;-81
2022/04/07 03:13:33;;;;;;;0.20;0.20;;;10.20;99.90;;;;;;5004388;28;20201;-80
2022/04/07 03:15:59;;;;;;;0.10;0.10;;;10.20;99.90;;;;;;4989665;28;20251;-81
2022/04/07 03:18:25;;;;;;;0.20;0.10;;;10.30;99.90;;;;;;4990748;28;20668;-81
2022/04/07 03:20:51;;;;;;;0.20;0.20;;;10.30;99.90;;;;;;4988607;28;20370;-81
2022/04/07 03:23:16;;;;;;;0.10;0.10;;;10.30;99.90;;;;;;4989260;28;20244;-81
2022/04/07 03:25:42;;;;;;;0.83;0.40;;;10.30;99.90;;;;;;4988774;28;20252;-81
2022/04/07 03:28:07;;;;;;;2.30;0.23;;;10.30;99.90;;;;;;4989502;28;20210;-81
2022/04/07 03:30:33;;;;;;;0.10;0.10;;;10.30;99.90;;;;;;4991720;28;20190;-81
2022/04/07 03:32:58;;;;;;;0.10;0.10;;;10.30;99.90;;;;;;4991002;28;20191;-81
2022/04/07 03:35:25;;;;;;;0.30;0.30;;;10.30;99.90;;;;;;4988927;28;20237;-81
2022/04/07 03:37:51;;;;;;;0.10;0.10;;;10.40;99.90;;;;;;4989147;28;20191;-81
2022/04/07 03:40:16;;;;;;;0.10;0.10;;;10.30;99.90;;;;;;4991434;28;20180;-81
2022/04/07 03:42:42;;;;;;;0.10;0.10;;;10.30;99.90;;;;;;4990078;28;20200;-81
2022/04/07 03:45:08;;;;;;;0.93;0.37;;;10.40;99.90;;;;;;4990609;28;20288;-80
2022/04/07 03:47:34;;;;;;;0.10;0.10;;;10.40;99.90;;;;;;4988072;28;20355;-81
2022/04/07 03:50:00;;;;;;;0.20;0.20;;;10.40;99.90;;;;;;4988824;28;20227;-82
2022/04/07 03:52:26;;;;;;;0.10;0.10;;;10.40;99.90;;;;;;4990591;28;20277;-81
2022/04/07 03:54:52;;;;;;;0.23;0.23;;;10.40;99.90;;;;;;4983961;28;20690;-82
2022/04/07 03:57:18;;;;;;;0.10;0.10;;;10.40;99.90;;;;;;4986613;28;20659;-82
2022/04/07 03:59:44;;;;;;;0.20;0.20;;;10.40;99.90;;;;;;4986309;28;20194;-81
2022/04/07 04:02:13;;;;;;;0.20;0.20;;;10.40;99.90;;;;;;4988436;28;20203;-81
2022/04/07 04:04:38;;;;;;;2.23;1.60;;;10.40;99.90;;;;;;4986856;28;20566;-81
2022/04/07 04:07:04;;;;;;;0.10;0.10;;;10.50;99.90;;;;;;4990346;28;20218;-82
2022/04/07 04:09:31;;;;;;;0.10;0.10;;;10.50;99.90;;;;;;4987632;28;20205;-80
2022/04/07 04:11:56;;;;;;;0.10;0.10;;;10.40;99.90;;;;;;4990096;28;20181;-80
2022/04/07 04:14:22;;;;;;;0.10;0.10;;;10.50;99.90;;;;;;4987726;28;20561;-82
2022/04/07 04:16:48;;;;;;;0.10;0.10;;;10.50;99.90;;;;;;4988430;28;20820;-81
2022/04/07 04:19:13;;;;;;;0.30;0.17;;;10.40;99.90;;;;;;4987595;28;20186;-82
2022/04/07 04:21:39;;;;;;;0.20;0.20;;;10.50;99.90;;;;;;4987543;28;20190;-81
2022/04/07 04:24:05;;;;;;;0.10;0.10;;;10.50;99.90;;;;;;4989675;28;20818;-81
2022/04/07 04:26:30;;;;;;;0.20;0.20;;;10.50;99.90;;;;;;4987237;28;20214;-81
2022/04/07 04:28:56;;;;;;;0.20;0.20;;;10.50;99.90;;;;;;4987244;28;20184;-81
2022/04/07 04:31:24;;;;;;;0.10;0.10;;;10.60;99.90;;;;;;4989293;28;21192;-81
2022/04/07 04:33:51;;;;;;;0.50;0.50;;;10.60;99.90;;;;;;4988314;28;20190;-81
2022/04/07 04:36:17;;;;;;;0.17;0.17;;;10.50;99.90;;;;;;4981046;28;20309;-81
2022/04/07 04:38:43;;;;;;;0.10;0.10;;;10.50;99.90;;;;;;4988966;28;20187;-81
2022/04/07 04:41:09;;;;;;;0.43;0.43;;;10.60;99.90;;;;;;4989398;28;20194;-81
2022/04/07 04:43:35;;;;;;;0.20;0.20;;;10.60;99.90;;;;;;4985166;28;20190;-80
2022/04/07 04:46:00;;;;;;;0.10;0.10;;;10.60;99.90;;;;;;4989157;28;20302;-81
2022/04/07 04:48:26;;;;;;;0.20;0.20;;;10.60;99.90;;;;;;4988369;28;20233;-81
2022/04/07 04:50:51;;;;;;;0.10;0.10;;;10.60;99.90;;;;;;4988181;28;20671;-81
2022/04/07 04:53:17;;;;;;;0.13;0.13;;;10.50;99.90;;;;;;4988886;28;20184;-82
2022/04/07 04:55:43;;;;;;;0.13;0.13;;;10.50;99.90;;;;;;4988243;28;20214;-81
2022/04/07 04:58:08;;;;;;;0.10;0.10;;;10.50;99.90;;;;;;4990272;28;20187;-81
2022/04/07 05:00:34;;;;;;;0.10;0.10;;;10.50;99.90;;;;;;4986531;28;20246;-81
2022/04/07 05:02:59;;;;;;;0.10;0.10;;;10.50;99.90;;;;;;4987464;28;20257;-81
2022/04/07 05:05:25;;;;;;;0.23;0.23;;;10.50;99.90;;;;;;4987764;28;20214;-81
2022/04/07 05:07:51;;;;;;;0.10;0.10;;;10.50;99.90;;;;;;4990913;28;20266;-81
2022/04/07 05:10:16;;;;;;;0.23;0.23;;;10.50;99.90;;;;;;4988648;28;20221;-81
2022/04/07 05:12:42;;;;;;;0.20;0.20;;;10.50;99.90;;;;;;4987613;28;20186;-81
2022/04/07 05:15:08;;;;;;;0.20;0.20;;;10.50;99.90;;;;;;4987846;28;20582;-81
2022/04/07 05:17:33;;;;;;;0.10;0.10;;;10.50;99.90;;;;;;4988319;28;20180;-82
2022/04/07 05:19:59;;;;;;;0.10;0.10;;;10.60;99.90;;;;;;4987075;28;20194;-81
2022/04/07 05:22:24;;;;;;;0.23;0.23;;;10.60;99.90;;;;;;4991059;28;20189;-79
2022/04/07 05:24:50;;;;;;;0.10;0.10;;;10.60;99.90;;;;;;4990539;28;20225;-79
2022/04/07 05:27:17;;;;;;;0.10;0.10;;;10.60;99.90;;;;;;4990680;28;20209;-79
2022/04/07 05:29:42;;;;;;;0.10;0.10;;;10.60;99.90;;;;;;4989782;28;20582;-79
2022/04/07 05:32:08;;;;;;;0.10;0.10;;;10.70;99.90;;;;;;4989461;28;20174;-80
2022/04/07 05:34:34;;;;;;;0.20;0.20;;;10.70;99.90;;;;;;4988590;28;20510;-81
2022/04/07 05:36:59;;;;;;;0.10;0.10;;;10.70;99.90;;;;;;4993172;28;20198;-81
2022/04/07 05:39:26;;;;;;;0.10;0.10;;;10.70;99.90;;;;;;5008286;28;20184;-81
2022/04/07 05:41:52;;;;;;;1.60;0.20;;;10.80;99.90;;;;;;4993290;28;20251;-81
2022/04/07 05:44:17;;;;;;;0.10;0.10;;;10.80;99.90;;;;;;4993563;28;20269;-81
2022/04/07 05:46:43;;;;;;;0.10;0.10;;;10.80;99.90;;;;;;4991993;28;20216;-81
2022/04/07 05:49:10;;;;;;;0.10;0.10;;;10.80;99.90;;;;;;4992685;28;20204;-81
2022/04/07 05:51:36;;;;;;;0.10;0.10;;;10.80;99.90;;;;;;4992813;28;20656;-81
2022/04/07 05:54:02;;;;;;;0.10;0.10;;;10.80;99.90;;;;;;4993500;28;20198;-80
2022/04/07 05:56:27;;;;;;;0.13;0.13;;;10.80;99.90;;;;;;4995130;28;20212;-81
2022/04/07 05:58:54;;;;;;;0.10;0.10;;;10.90;99.90;;;;;;4991642;28;20190;-81
2022/04/07 06:01:20;;;;;;;0.10;0.10;;;10.90;99.90;;;;;;4994087;28;20241;-81
2022/04/07 06:03:45;;;;;;;0.10;0.10;;;10.90;99.90;;;;;;4993072;28;20256;-81
2022/04/07 06:06:11;;;;;;;0.10;0.10;;;10.90;99.90;;;;;;4992659;28;20743;-81
2022/04/07 06:08:36;;;;;;;0.20;0.20;;;10.90;99.90;;;;;;4992513;28;20202;-81
2022/04/07 06:11:02;;;;;;;0.10;0.10;;;10.90;99.90;;;;;;4992818;28;20932;-81
2022/04/07 06:13:27;;;;;;;0.10;0.10;;;10.90;99.90;;;;;;4994553;28;20190;-81
2022/04/07 06:15:53;;;;;;;0.10;0.10;;;10.90;99.90;;;;;;4993819;28;20668;-81
2022/04/07 06:18:19;;;;;;;0.10;0.10;;;10.90;99.90;;;;;;4994249;28;20220;-81
2022/04/07 06:20:46;;;;;;;0.00;0.00;;;10.90;99.90;;;;;;4992295;28;20192;-81
2022/04/07 06:23:12;;;;;;;0.20;0.20;;;10.90;99.90;;;;;;4992781;28;20188;-81
2022/04/07 06:25:39;;;;;;;0.20;0.20;;;10.90;99.90;;;;;;4992056;28;20766;-81
2022/04/07 06:28:05;;;;;;;0.50;0.50;;;10.80;99.90;;;;;;4991433;28;20238;-83
2022/04/07 06:30:30;;;;;;;0.10;0.10;;;10.80;99.90;;;;;;4990645;28;20434;-81
2022/04/07 06:32:56;;;;;;;0.70;0.70;;;10.80;99.90;;;;;;4989812;28;20188;-81
2022/04/07 06:35:22;;;;;;;0.20;0.20;;;10.80;99.90;;;;;;4989213;28;20226;-81
2022/04/07 06:37:54;;;;;;;0.17;0.17;;;10.80;99.90;;;;;;4988384;28;20192;-81
2022/04/07 06:40:22;;;;;;;0.10;0.10;;;10.90;99.90;;;;;;4991150;28;20184;-81
2022/04/07 06:42:48;;;;;;;0.23;0.23;;;10.80;99.90;;;;;;4981137;28;20188;-79
2022/04/07 06:45:14;;;;;;;0.20;0.20;;;10.70;99.90;;;;;;4988248;28;20226;-79
2022/04/07 06:47:39;;;;;;;0.10;0.10;;;10.70;99.90;;;;;;4988022;28;20216;-80
2022/04/07 06:50:10;;;;;;;0.30;0.30;;;10.60;99.90;;;;;;4989820;28;20544;-79
2022/04/07 06:52:36;;;;;;;0.20;0.20;;;10.60;99.90;;;;;;4987786;28;20179;-79
2022/04/07 06:55:02;;;;;;;0.10;0.10;;;10.50;99.90;;;;;;4990041;28;20214;-79
2022/04/07 06:57:28;;;;;;;0.20;0.20;;;10.50;99.90;;;;;;4990212;28;20188;-79
2022/04/07 06:59:53;;;;;;;0.10;0.10;;;10.50;99.90;;;;;;4988804;28;20644;-79
2022/04/07 07:02:19;;;;;;;0.10;0.10;;;10.60;99.90;;;;;;4988287;28;20283;-79
2022/04/07 07:04:44;;;;;;;0.40;0.10;;;10.60;99.90;;;;;;4988031;28;20204;-79
2022/04/07 07:07:11;;;;;;;0.10;0.10;;;10.60;99.90;;;;;;4987807;28;20225;-79
2022/04/07 07:09:37;;;;;;;0.10;0.10;;;10.60;99.90;;;;;;4989415;28;20273;-79
2022/04/07 07:12:03;;;;;;;0.10;0.10;;;10.60;99.90;;;;;;4988271;28;20193;-80
2022/04/07 07:14:29;;;;;;;0.20;0.20;;;10.70;99.90;;;;;;4989310;28;20274;-79
2022/04/07 07:16:54;;;;;;;0.10;0.10;;;10.80;99.90;;;;;;4989532;28;20281;-79
2022/04/07 07:19:26;;;;;;;0.33;0.33;;;10.90;99.90;;;;;;4988232;28;20596;-79
2022/04/07 07:21:52;;;;;;;0.10;0.10;;;11.00;99.90;;;;;;4988220;28;20176;-79
2022/04/07 07:24:18;;;;;;;0.10;0.10;;;10.90;99.90;;;;;;4987271;28;20271;-79
2022/04/07 07:26:44;;;;;;;0.10;0.10;;;10.90;99.90;;;;;;4988042;28;20615;-79
2022/04/07 07:29:10;;;;;;;0.10;0.10;;;10.90;99.90;;;;;;4989189;28;20402;-79
2022/04/07 07:31:36;;;;;;;0.03;0.03;;;10.80;99.90;;;;;;4988952;28;20193;-80
2022/04/07 07:34:03;;;;;;;0.20;0.20;;;10.80;99.90;;;;;;4987746;28;20273;-79
2022/04/07 07:36:29;;;;;;;0.10;0.10;;;10.80;99.90;;;;;;4987650;28;20697;-79
2022/04/07 07:38:55;;;;;;;0.10;0.10;;;10.80;99.90;;;;;;5001705;28;20201;-79
2022/04/07 07:41:20;;;;;;;0.10;0.10;;;10.80;99.90;;;;;;4987198;28;20581;-79
2022/04/07 07:43:46;;;;;;;0.10;0.10;;;10.80;99.90;;;;;;4978236;28;20191;-79
2022/04/07 07:46:11;;;;;;;0.57;0.20;;;11.00;99.90;;;;;;4985918;28;20212;-79
2022/04/07 07:48:37;;;;;;;0.10;0.10;;;10.90;99.90;;;;;;4986488;28;20671;-79
2022/04/07 07:51:02;;;;;;;0.10;0.10;;;10.90;99.90;;;;;;4985823;28;20193;-79
2022/04/07 07:53:28;;;;;;;0.10;0.10;;;10.90;99.90;;;;;;4986124;28;20192;-79
2022/04/07 07:55:54;;;;;;;0.20;0.20;;;10.90;99.90;;;;;;4986651;28;20258;-80
2022/04/07 07:58:20;;;;;;;0.10;0.10;;;10.90;99.90;;;;;;4985666;28;20707;-80
2022/04/07 08:00:46;;;;;;;0.10;0.10;;;11.00;99.90;;;;;;4985620;28;20190;-79
2022/04/07 08:03:12;;;;;;;0.10;0.10;;;11.00;99.90;;;;;;4984537;28;20187;-79
2022/04/07 08:05:37;;;;;;;0.00;0.00;;;11.00;99.90;;;;;;4984391;28;20202;-79
2022/04/07 08:08:03;;;;;;;0.30;0.30;;;11.10;99.90;;;;;;5001060;28;20205;-79
2022/04/07 08:10:29;;;;;;;0.10;0.10;;;11.10;99.90;;;;;;4987838;28;20189;-79
2022/04/07 08:12:55;;;;;;;0.20;0.20;;;11.10;99.90;;;;;;4988015;28;20187;-79
2022/04/07 08:15:20;;;;;;;0.30;0.30;;;11.20;99.90;;;;;;4987323;28;20244;-82
2022/04/07 08:17:46;;;;;;;0.10;0.10;;;11.20;99.90;;;;;;4987638;28;20653;-79
2022/04/07 08:20:12;;;;;;;0.10;0.10;;;11.20;99.90;;;;;;4988760;28;20198;-80
2022/04/07 08:22:38;;;;;;;0.10;0.10;;;11.10;99.90;;;;;;4986636;28;20305;-79
2022/04/07 08:25:04;;;;;;;0.10;0.10;;;11.10;99.90;;;;;;4988210;28;20690;-79
2022/04/07 08:27:29;;;;;;;0.10;0.10;;;11.20;99.90;;;;;;4987411;28;20683;-79
2022/04/07 08:29:55;;;;;;;0.10;0.10;;;11.20;99.90;;;;;;4984932;28;20238;-79
2022/04/07 08:32:20;;;;;;;0.10;0.10;;;11.30;99.90;;;;;;4984966;28;20243;-79
2022/04/07 08:34:46;;;;;;;0.10;0.10;;;11.30;99.90;;;;;;4947725;28;1094886;-79
2022/04/07 08:37:12;;;;;;;0.10;0.10;;;11.30;99.90;;;;;;4987727;28;20191;-78
2022/04/07 08:39:37;;;;;;;0.47;0.47;;;11.40;99.90;;;;;;4986051;28;20204;-78
2022/04/07 08:42:05;;;;;;;0.97;0.30;;;11.40;99.90;;;;;;4987972;28;21051;-79
2022/04/07 08:44:31;;;;;;;0.10;0.10;;;11.50;99.90;;;;;;4986428;28;20191;-79
2022/04/07 08:46:58;;;;;;;0.10;0.10;;;11.50;99.90;;;;;;4978450;28;20213;-79
2022/04/07 08:49:27;;;;;;;0.00;0.00;;;11.50;99.90;;;;;;4986723;28;20183;-79
2022/04/07 08:51:53;;;;;;;0.10;0.10;;;11.70;99.90;;;;;;4987656;28;20201;-79
2022/04/07 08:54:19;;;;;;;0.10;0.10;;;11.70;99.90;;;;;;4985644;28;20195;-79
2022/04/07 08:56:46;;;;;;;0.10;0.10;;;11.70;99.90;;;;;;4978321;28;20199;-79
2022/04/07 08:59:12;;;;;;;0.10;0.10;;;11.80;99.90;;;;;;4988017;28;20258;-79
2022/04/07 09:01:38;;;;;;;0.10;0.10;;;11.90;99.90;;;;;;4987637;28;20199;-79
2022/04/07 09:04:03;;;;;;;0.10;0.10;;;11.80;99.90;;;;;;4986530;28;20198;-79
2022/04/07 09:06:33;;;;;;;0.10;0.10;;;11.80;99.90;;;;;;4984749;28;20349;-80
2022/04/07 09:09:12;;;;;;;0.00;0.00;;;11.80;99.90;;;;;;4984697;28;21639;-79
2022/04/07 09:11:38;;;;;;;0.10;0.10;;;11.90;99.90;;;;;;4976118;28;21250;-80
2022/04/07 09:14:03;;;;;;;0.10;0.10;;;12.00;99.90;;;;;;4986594;28;20195;-80
2022/04/07 09:16:30;;;;;;;0.10;0.10;;;11.90;99.90;;;;;;4993586;28;20211;-80
2022/04/07 09:18:55;;;;;;;0.27;0.17;;;12.00;99.90;;;;;;4980172;28;20282;-80
2022/04/07 09:21:31;;;;;;;0.13;0.13;;;12.00;99.90;;;;;;4984053;28;20266;-80
2022/04/07 09:23:58;;;;;;;0.10;0.10;;;12.10;99.90;;;;;;4987131;28;20179;-80
2022/04/07 09:26:24;;;;;;;0.10;0.10;;;12.20;99.90;;;;;;4984085;28;20229;-80
2022/04/07 09:28:55;;;;;;;0.10;0.10;;;12.20;99.90;;;;;;4986714;28;20194;-79
2022/04/07 09:31:22;;;;;;;0.10;0.10;;;12.20;99.90;;;;;;4985418;28;20194;-80
2022/04/07 09:33:55;;;;;;;0.10;0.10;;;12.20;99.90;;;;;;4978448;28;20245;-79
2022/04/07 09:36:22;;;;;;;0.10;0.10;;;12.30;99.90;;;;;;4993310;28;20716;-79
2022/04/07 09:38:52;;;;;;;0.10;0.10;;;12.30;99.90;;;;;;4983788;28;20200;-79
2022/04/07 09:41:21;;;;;;;0.10;0.10;;;12.30;99.90;;;;;;4985372;28;20198;-79
2022/04/07 09:43:58;;;;;;;1.07;0.93;;;12.30;99.90;;;;;;4974348;28;20228;-80
2022/04/07 09:46:25;;;;;;;0.10;0.10;;;12.30;99.90;;;;;;4983467;28;20684;-79
2022/04/07 09:48:59;;;;;;;0.10;0.10;;;12.40;99.90;;;;;;4984183;28;20205;-79
2022/04/07 09:51:27;;;;;;;0.00;0.00;;;12.40;99.90;;;;;;4988685;28;20199;-81
2022/04/07 09:53:55;;;;;;;0.10;0.10;;;12.40;99.90;;;;;;4986054;28;21242;-81
2022/04/07 09:56:24;;;;;;;0.10;0.10;;;12.50;99.90;;;;;;4988210;28;20215;-82
2022/04/07 09:58:53;;;;;;;0.10;0.10;;;12.60;99.90;;;;;;4980127;28;20223;-81
2022/04/07 10:01:18;;;;;;;0.07;0.07;;;12.60;99.90;;;;;;4988163;28;20257;-82
2022/04/07 10:03:44;;;;;;;0.10;0.10;;;12.80;99.90;;;;;;4987960;28;20275;-82
2022/04/07 10:06:14;;;;;;;0.10;0.10;;;12.90;99.90;;;;;;5002487;28;20581;-81
2022/04/07 10:08:46;;;;;;;0.10;0.10;;;13.20;99.90;;;;;;4990021;28;20628;-81
2022/04/07 10:11:13;;;;;;;0.10;0.10;;;13.30;99.90;;;;;;4990961;28;20279;-84
2022/04/07 10:13:41;;;;;;;0.10;0.10;;;13.30;99.90;;;;;;4991002;28;20181;-82
2022/04/07 10:16:07;;;;;;;0.10;0.10;;;13.30;99.90;;;;;;5006624;28;20216;-82
2022/04/07 10:18:44;;;;;;;0.10;0.10;;;13.30;99.90;;;;;;4989697;28;20279;-82
2022/04/07 10:21:22;;;;;;;0.10;0.10;;;13.20;99.90;;;;;;4991781;28;20553;-82
2022/04/07 10:24:19;;;;;;;0.10;0.10;;;13.20;99.90;;;;;;4990577;28;20187;-81
2022/04/07 10:26:46;;;;;;;0.10;0.10;;;13.20;99.90;;;;;;4986627;28;20739;-81
2022/04/07 10:29:22;;;;;;;0.10;0.10;;;13.10;99.90;;;;;;4990654;28;20203;-82
2022/04/07 10:32:12;;;;;;;0.00;0.00;;;13.10;99.90;;;;;;4990408;28;20276;-82
2022/04/07 10:34:42;;;;;;;0.10;0.10;;;13.10;99.90;;;;;;4990111;28;20223;-81
2022/04/07 10:37:09;;;;;;;0.10;0.10;;;13.20;99.90;;;;;;4993123;28;20183;-82
2022/04/07 10:39:35;;;;;;;0.10;0.10;;;13.10;99.90;;;;;;4992055;28;20937;-82
2022/04/07 10:42:01;;;;;;;2.37;0.27;;;13.20;99.90;;;;;;4991718;28;20282;-81
2022/04/07 10:44:27;;;;;;;0.20;0.20;;;13.20;99.90;;;;;;4992212;28;20201;-81
2022/04/07 10:47:07;;;;;;;0.10;0.10;;;13.30;99.90;;;;;;4992943;28;20287;-82
2022/04/07 10:49:33;;;;;;;0.10;0.10;;;13.40;99.90;;;;;;4991906;28;20687;-82
2022/04/07 10:52:03;;;;;;;0.10;0.10;;;13.30;99.90;;;;;;4993841;28;20567;-81
2022/04/07 10:54:29;;;;;;;0.10;0.10;;;13.40;99.90;;;;;;4992224;28;20180;-81
2022/04/07 10:56:57;;;;;;;0.10;0.10;;;13.40;99.90;;;;;;4992474;28;20188;-82
2022/04/07 10:59:27;;;;;;;0.10;0.10;;;13.60;99.90;;;;;;4992235;28;20194;-82
2022/04/07 11:01:59;;;;;;;0.10;0.10;;;13.70;99.90;;;;;;4991992;28;20756;-81
2022/04/07 11:04:25;;;;;;;0.10;0.10;;;13.70;99.90;;;;;;4991177;28;20755;-82
2022/04/07 11:09:57;;;;;;;0.10;0.10;;;13.90;99.90;;;;;;4993204;28;20278;-82
2022/04/07 11:12:29;;;;;;;0.10;0.10;;;13.90;99.90;;;;;;4992301;28;20176;-81
2022/04/07 11:15:01;;;;;;;0.00;0.00;;;14.10;99.90;;;;;;4992314;28;20196;-81
2022/04/07 11:17:43;;;;;;;0.10;0.10;;;14.20;99.90;;;;;;4992019;28;20195;-82
2022/04/07 11:20:09;;;;;;;0.20;0.20;;;14.20;99.90;;;;;;4989869;28;20190;-81
2022/04/07 11:22:47;;;;;;;0.10;0.10;;;14.20;99.90;;;;;;5005766;28;20199;-82
2022/04/07 11:25:14;;;;;;;0.10;0.10;;;14.20;99.90;;;;;;4991916;28;20700;-81
2022/04/07 11:27:43;;;;;;;0.10;0.10;;;14.20;99.90;;;;;;4991415;28;20203;-81
2022/04/07 11:30:13;;;;;;;0.10;0.10;;;14.20;99.90;;;;;;4991480;28;20202;-81
2022/04/07 11:33:14;;;;;;;0.10;0.10;;;14.20;99.90;;;;;;4987648;28;20242;-81
2022/04/07 11:35:39;;;;;;;0.10;0.10;;;14.50;99.90;;;;;;4991104;28;20225;-81
2022/04/07 11:38:05;;;;;;;0.10;0.10;;;14.70;99.90;;;;;;4990571;28;20274;-81
2022/04/07 11:40:31;;;;;;;0.10;0.10;;;14.90;99.90;;;;;;4992867;28;20258;-81
2022/04/07 11:42:58;;;;;;;0.10;0.10;;;15.20;99.90;;;;;;4988112;28;20179;-81
2022/04/07 11:45:30;;;;;;;0.10;0.10;;;15.10;99.90;;;;;;4989575;28;20205;-81
2022/04/07 11:47:56;;;;;;;0.10;0.10;;;15.00;99.90;;;;;;4989106;28;20240;-81
2022/04/07 11:50:21;;;;;;;0.10;0.10;;;14.70;99.90;;;;;;4989788;28;20219;-81
2022/04/07 11:52:49;;;;;;;0.77;0.20;;;14.80;99.90;;;;;;4990485;28;20283;-81
2022/04/07 11:55:17;;;;;;;0.10;0.10;;;14.80;99.90;;;;;;5004415;28;20211;-82
2022/04/07 11:57:42;;;;;;;0.10;0.10;;;14.90;99.90;;;;;;4988133;28;20251;-80
2022/04/07 12:00:10;;;;;;;0.10;0.10;;;14.70;99.90;;;;;;4992057;28;20226;-80
2022/04/07 12:02:36;;;;;;;0.10;0.10;;;14.70;99.90;;;;;;5000947;28;20180;-80
2022/04/07 12:05:04;;;;;;;0.90;0.57;;;14.70;99.90;;;;;;4991563;28;20288;-80
2022/04/07 12:07:30;;;;;;;0.10;0.10;;;14.80;99.90;;;;;;4993486;28;20211;-80
2022/04/07 12:10:04;;;;;;;0.10;0.10;;;14.80;99.90;;;;;;4995047;28;20178;-83
2022/04/07 12:12:29;;;;;;;0.10;0.10;;;14.80;99.90;;;;;;4995622;28;20722;-81
2022/04/07 12:14:55;;;;;;;0.10;0.10;;;14.90;99.90;;;;;;4993606;28;20281;-81
2022/04/07 12:17:22;;;;;;;0.10;0.10;;;15.00;99.90;;;;;;4993215;28;20195;-81
2022/04/07 12:19:49;;;;;;;0.10;0.10;;;15.00;99.90;;;;;;4992693;28;20184;-81
2022/04/07 12:22:16;;;;;;;0.10;0.10;;;15.20;99.90;;;;;;4991151;28;20195;-81
2022/04/07 12:25:01;;;;;;;0.10;0.10;;;15.40;99.90;;;;;;4993221;28;20208;-81
2022/04/07 12:27:34;;;;;;;0.10;0.10;;;15.70;99.90;;;;;;4993592;28;20211;-81
2022/04/07 12:30:01;;;;;;;0.10;0.10;;;15.80;99.90;;;;;;4991664;28;20261;-81
2022/04/07 12:32:40;;;;;;;0.10;0.10;;;15.70;99.90;;;;;;4993525;28;21063;-81
2022/04/07 12:35:06;;;;;;;0.10;0.10;;;15.70;99.90;;;;;;5006971;28;20328;-81
2022/04/07 12:37:36;;;;;;;0.10;0.10;;;16.00;99.90;;;;;;4991751;28;20209;-81
2022/04/07 12:40:02;;;;;;;0.10;0.10;;;15.90;99.90;;;;;;5007516;28;20241;-81
2022/04/07 12:42:28;;;;;;;0.20;0.20;;;15.70;99.90;;;;;;5007359;28;20234;-81
2022/04/07 12:45:07;;;;;;;0.10;0.10;;;15.40;99.90;;;;;;5006362;28;20224;-81
2022/04/07 12:47:33;;;;;;;0.10;0.10;;;14.90;99.90;;;;;;4993121;28;20215;-81
2022/04/07 12:50:01;;;;;;;0.10;0.10;;;14.50;99.90;;;;;;4992700;28;20606;-81